Boardman, Wisconsin
Current Conditions -  °F | °C
As of 2:31 AM on Tuesday 21 Oct 2014 (Local Time) from K21D Reporting Station
Clear Clear  
Wind Chill: 32°   Ceiling: Unl
Heat Index: 32°   Visibility: 7mi
Dew Point: 32°   Wind: 0mph
Humidity: 100%   Direction: NA
Pressure: 30.14"   Gusts: NA
Location:  44.9743°N, 92.6899°W
Report Text: K21D 210731Z AUTO 00000KT 7SM CLR 00/00 A3014 RMK AO2
Loading
Personal Weather Stations






























Interactive Weather Map
Tropical Storm Tracking
New forecast layout! Learn more

10-Day Weather Forecast

Advertisements
Track Severe Weather on mobile